createdAt,value
2023-05-17T00:02:01.907Z,1.48
2023-05-17T00:04:29.003Z,1.80
2023-05-17T00:06:55.941Z,1.70
2023-05-17T00:09:22.684Z,1.83
2023-05-17T00:11:49.492Z,1.90
2023-05-17T00:14:16.634Z,1.42
2023-05-17T00:16:43.693Z,1.73
2023-05-17T00:19:10.917Z,1.52
2023-05-17T00:21:38.332Z,1.70
2023-05-17T00:24:05.531Z,1.80
2023-05-17T00:26:34.009Z,1.90
2023-05-17T00:29:00.895Z,1.88
2023-05-17T00:31:27.752Z,1.70
2023-05-17T00:33:54.565Z,1.45
2023-05-17T00:36:21.531Z,1.85
2023-05-17T00:38:48.390Z,1.95
2023-05-17T00:41:15.250Z,1.70
2023-05-17T00:43:42.048Z,1.90
2023-05-17T00:46:08.875Z,2.17
2023-05-17T00:48:36.080Z,1.40
2023-05-17T00:51:03.165Z,1.58
2023-05-17T00:53:30.583Z,1.70
2023-05-17T00:55:57.407Z,1.60
2023-05-17T00:58:24.748Z,1.85
2023-05-17T01:00:51.817Z,2.25
2023-05-17T01:03:18.760Z,1.80
2023-05-17T01:05:45.744Z,1.55
2023-05-17T01:08:12.555Z,2.00
2023-05-17T01:10:48.536Z,1.90
2023-05-17T01:13:33.031Z,1.73
2023-05-17T01:16:25.696Z,1.70
2023-05-17T01:18:59.218Z,1.88
2023-05-17T01:21:44.304Z,1.85
2023-05-17T01:24:26.857Z,2.22
2023-05-17T01:26:55.257Z,2.00
2023-05-17T01:29:26.289Z,1.73
2023-05-17T01:31:53.941Z,1.83
2023-05-17T01:34:27.904Z,2.03
2023-05-17T01:36:54.806Z,1.80
2023-05-17T01:39:21.768Z,1.75
2023-05-17T01:42:00.133Z,2.10
2023-05-17T01:44:35.087Z,1.98
2023-05-17T01:47:12.162Z,2.10
2023-05-17T01:49:41.938Z,1.80
2023-05-17T01:52:19.484Z,1.80
2023-05-17T01:54:48.151Z,2.65
2023-05-17T01:57:16.873Z,1.70
2023-05-17T01:59:45.790Z,1.88
2023-05-17T02:02:14.211Z,2.13
2023-05-17T02:04:41.364Z,1.70
2023-05-17T02:07:08.691Z,2.08
2023-05-17T02:09:35.551Z,2.47
2023-05-17T02:12:02.746Z,1.60
2023-05-17T02:14:29.583Z,1.80
2023-05-17T02:16:57.537Z,1.70
2023-05-17T02:19:24.612Z,1.88
2023-05-17T02:21:51.484Z,1.80
2023-05-17T02:24:18.265Z,1.70
2023-05-17T02:26:46.057Z,1.83
2023-05-17T02:29:12.995Z,2.00
2023-05-17T02:31:39.777Z,1.90
2023-05-17T02:34:06.583Z,2.05
2023-05-17T02:36:33.558Z,1.98
2023-05-17T02:39:00.428Z,2.17
2023-05-17T02:41:27.285Z,2.33
2023-05-17T02:43:54.080Z,2.08
2023-05-17T02:46:21.744Z,2.20
2023-05-17T02:48:48.625Z,2.80
2023-05-17T02:51:15.921Z,2.35
2023-05-17T02:53:42.738Z,2.08
2023-05-17T02:56:09.537Z,1.83
2023-05-17T02:58:36.353Z,2.22
2023-05-17T03:01:03.272Z,2.63
2023-05-17T03:03:31.784Z,2.45
2023-05-17T03:06:02.742Z,2.40
2023-05-17T03:08:29.633Z,2.47
2023-05-17T03:10:56.531Z,2.58
2023-05-17T03:13:23.340Z,2.35
2023-05-17T03:15:50.122Z,2.30
2023-05-17T03:18:17.105Z,2.17
2023-05-17T03:20:44.113Z,2.20
2023-05-17T03:23:11.050Z,2.40
2023-05-17T03:25:37.819Z,2.55
2023-05-17T03:28:04.871Z,2.10
2023-05-17T03:30:31.807Z,2.17
2023-05-17T03:32:58.867Z,2.80
2023-05-17T03:35:25.933Z,2.60
2023-05-17T03:37:52.804Z,2.53
2023-05-17T03:40:19.683Z,2.42
2023-05-17T03:42:46.425Z,2.55
2023-05-17T03:45:13.371Z,2.90
2023-05-17T03:47:40.279Z,2.45
2023-05-17T03:50:07.988Z,2.67
2023-05-17T03:52:34.873Z,2.38
2023-05-17T03:55:01.731Z,2.83
2023-05-17T03:57:28.549Z,2.45
2023-05-17T03:59:55.391Z,2.53
2023-05-17T04:02:22.359Z,2.70
2023-05-17T04:04:50.641Z,2.63
2023-05-17T04:07:17.916Z,3.28
2023-05-17T04:09:45.383Z,2.80
2023-05-17T04:12:12.280Z,2.67
2023-05-17T04:14:39.196Z,2.75
2023-05-17T04:17:06.168Z,2.92
2023-05-17T04:19:34.126Z,2.83
2023-05-17T04:22:00.967Z,2.22
2023-05-17T04:24:27.808Z,2.60
2023-05-17T04:26:54.599Z,3.20
2023-05-17T04:29:21.529Z,2.63
2023-05-17T04:31:49.555Z,2.72
2023-05-17T04:34:16.553Z,2.80
2023-05-17T04:36:43.429Z,2.97
2023-05-17T04:39:10.221Z,2.80
2023-05-17T04:41:38.051Z,3.33
2023-05-17T04:44:06.087Z,3.25
2023-05-17T04:46:32.912Z,2.88
2023-05-17T04:49:00.456Z,3.05
2023-05-17T04:51:27.904Z,3.10
2023-05-17T04:53:55.118Z,2.75
2023-05-17T04:56:22.870Z,2.85
2023-05-17T04:58:50.980Z,3.83
2023-05-17T05:01:19.030Z,3.38
2023-05-17T05:03:46.296Z,3.30
2023-05-17T05:06:13.222Z,3.00
2023-05-17T05:08:40.057Z,3.10
2023-05-17T05:11:06.969Z,2.97
2023-05-17T05:13:33.856Z,2.95
2023-05-17T05:16:00.821Z,3.33
2023-05-17T05:18:27.776Z,3.20
2023-05-17T05:20:54.777Z,3.33
2023-05-17T05:23:21.654Z,3.50
2023-05-17T05:25:48.480Z,3.08
2023-05-17T05:28:15.234Z,3.33
2023-05-17T05:30:42.163Z,3.03
2023-05-17T05:33:09.198Z,3.83
2023-05-17T05:35:36.071Z,3.45
2023-05-17T05:38:03.368Z,3.97
2023-05-17T05:40:30.295Z,3.20
2023-05-17T05:42:57.332Z,3.22
2023-05-17T05:45:24.143Z,3.75
2023-05-17T05:47:51.110Z,3.35
2023-05-17T05:50:18.026Z,3.47
2023-05-17T05:52:47.729Z,3.47
2023-05-17T05:55:14.636Z,3.92
2023-05-17T05:57:41.550Z,3.92
2023-05-17T06:00:09.313Z,3.70
2023-05-17T06:02:36.545Z,3.78
2023-05-17T06:05:04.123Z,4.35
2023-05-17T06:07:31.012Z,4.05
2023-05-17T06:09:58.055Z,3.63
2023-05-17T06:12:24.949Z,3.53
2023-05-17T06:14:51.793Z,3.85
2023-05-17T06:17:18.695Z,3.20
2023-05-17T06:19:45.617Z,3.90
2023-05-17T06:22:12.432Z,3.83
2023-05-17T06:24:39.177Z,3.55
2023-05-17T06:27:07.423Z,3.50
2023-05-17T06:29:34.684Z,3.40
2023-05-17T06:32:01.426Z,3.28
2023-05-17T06:34:28.627Z,3.17
2023-05-17T06:36:55.532Z,3.10
2023-05-17T06:39:22.364Z,3.58
2023-05-17T06:41:49.169Z,3.20
2023-05-17T06:44:16.234Z,3.15
2023-05-17T06:46:42.991Z,3.05
2023-05-17T06:49:09.837Z,3.20
2023-05-17T06:51:36.698Z,3.42
2023-05-17T06:54:03.654Z,3.28
2023-05-17T06:56:30.508Z,4.03
2023-05-17T06:58:57.354Z,3.38
2023-05-17T07:01:24.888Z,3.28
2023-05-17T07:03:51.798Z,3.38
2023-05-17T07:06:18.764Z,3.03
2023-05-17T07:08:46.422Z,3.22
2023-05-17T07:11:13.260Z,3.08
2023-05-17T07:13:40.174Z,3.38
2023-05-17T07:16:10.908Z,3.20
2023-05-17T07:18:40.507Z,3.45
2023-05-17T07:21:07.497Z,3.60
2023-05-17T07:23:34.359Z,3.55
2023-05-17T07:26:01.142Z,3.53
2023-05-17T07:28:27.942Z,3.22
2023-05-17T07:30:54.950Z,3.40
2023-05-17T07:33:21.741Z,3.40
2023-05-17T07:35:48.736Z,3.25
2023-05-17T07:38:15.563Z,3.80
2023-05-17T07:40:42.319Z,4.45
2023-05-17T07:43:09.144Z,3.30
2023-05-17T07:45:35.934Z,3.10
2023-05-17T07:48:02.839Z,3.40
2023-05-17T07:50:29.848Z,3.53
2023-05-17T07:52:59.029Z,3.35
2023-05-17T07:55:25.828Z,3.22
2023-05-17T07:57:52.895Z,3.70
2023-05-17T08:00:20.244Z,3.55
2023-05-17T08:02:47.052Z,3.25
2023-05-17T08:05:14.115Z,3.95
2023-05-17T08:07:41.035Z,3.42
2023-05-17T08:10:08.454Z,3.38
2023-05-17T08:12:35.492Z,3.25
2023-05-17T08:15:02.671Z,3.42
2023-05-17T08:17:29.558Z,3.53
2023-05-17T08:19:56.542Z,3.55
2023-05-17T08:22:23.388Z,2.83
2023-05-17T08:24:50.209Z,3.40
2023-05-17T08:27:17.246Z,3.30
2023-05-17T08:29:44.166Z,3.80
2023-05-17T08:32:11.157Z,3.55
2023-05-17T08:34:38.231Z,3.15
2023-05-17T08:37:05.273Z,3.63
2023-05-17T08:39:32.863Z,3.08
2023-05-17T08:42:01.972Z,3.53
2023-05-17T08:44:28.865Z,3.42
2023-05-17T08:46:56.929Z,3.60
2023-05-17T08:49:26.081Z,3.65
2023-05-17T08:51:55.615Z,3.95
2023-05-17T08:54:22.994Z,3.60
2023-05-17T08:56:54.142Z,3.67
2023-05-17T08:59:22.134Z,4.43
2023-05-17T09:01:50.059Z,3.70
2023-05-17T09:04:17.739Z,3.88
2023-05-17T09:06:45.031Z,3.70
2023-05-17T09:09:11.990Z,3.70
2023-05-17T09:11:39.169Z,3.50
2023-05-17T09:14:07.596Z,4.70
2023-05-17T09:16:36.514Z,3.75
2023-05-17T09:19:05.824Z,3.92
2023-05-17T09:21:33.312Z,3.70
2023-05-17T09:26:42.664Z,3.53
2023-05-17T09:29:11.034Z,3.53
2023-05-17T09:31:38.391Z,4.20
2023-05-17T09:34:07.415Z,3.83
2023-05-17T09:36:37.002Z,4.03
2023-05-17T09:39:06.334Z,4.18
2023-05-17T09:41:42.375Z,3.83
2023-05-17T09:44:10.625Z,4.35
2023-05-17T09:46:41.997Z,3.80
2023-05-17T09:49:09.651Z,3.78
2023-05-17T09:51:39.264Z,3.42
2023-05-17T09:54:10.665Z,3.78
2023-05-17T09:56:37.778Z,4.43
2023-05-17T09:59:11.156Z,3.60
2023-05-17T10:01:44.062Z,3.90
2023-05-17T10:04:12.173Z,4.45
2023-05-17T10:09:14.226Z,4.00
2023-05-17T10:11:44.689Z,4.47
2023-05-17T10:14:18.732Z,3.95
2023-05-17T10:16:45.979Z,3.63
2023-05-17T10:19:14.484Z,3.50
2023-05-17T10:21:43.117Z,3.58
2023-05-17T10:24:11.594Z,3.45
2023-05-17T10:26:39.037Z,3.85
2023-05-17T10:29:06.436Z,4.45
2023-05-17T10:31:34.670Z,3.90
2023-05-17T10:34:03.461Z,4.05
2023-05-17T10:36:31.442Z,3.75
2023-05-17T10:38:59.635Z,4.13
2023-05-17T10:41:33.311Z,3.47
2023-05-17T10:44:03.629Z,3.78
2023-05-17T10:46:31.115Z,3.80
2023-05-17T10:49:01.968Z,3.92
2023-05-17T10:51:36.962Z,3.80
2023-05-17T10:54:18.559Z,4.35
2023-05-17T10:56:52.965Z,4.50
2023-05-17T10:59:29.828Z,4.35
2023-05-17T11:02:07.164Z,3.28
2023-05-17T11:04:41.209Z,3.85
2023-05-17T11:07:22.386Z,4.00
2023-05-17T11:09:50.284Z,3.72
2023-05-17T11:12:30.704Z,3.95
2023-05-17T11:14:58.749Z,4.40
2023-05-17T11:17:28.129Z,4.97
2023-05-17T11:19:55.217Z,3.80
2023-05-17T11:22:34.297Z,3.55
2023-05-17T11:25:05.926Z,3.70
2023-05-17T11:27:38.011Z,4.30
2023-05-17T11:30:29.201Z,4.65
2023-05-17T11:33:00.891Z,4.47
2023-05-17T11:35:38.610Z,3.35
2023-05-17T11:38:22.437Z,3.85
2023-05-17T11:40:50.963Z,4.00
2023-05-17T11:43:20.259Z,3.80
2023-05-17T11:45:53.285Z,4.05
2023-05-17T11:48:22.933Z,3.97
2023-05-17T11:50:51.712Z,3.40
2023-05-17T11:53:19.159Z,3.33
2023-05-17T11:55:51.077Z,3.60
2023-05-17T11:58:36.313Z,3.20
2023-05-17T12:01:04.483Z,3.10
2023-05-17T12:03:33.402Z,4.00
2023-05-17T12:06:13.490Z,3.30
2023-05-17T12:08:45.294Z,4.03
2023-05-17T12:11:15.002Z,3.35
2023-05-17T12:13:47.107Z,3.20
2023-05-17T12:16:17.900Z,3.50
2023-05-17T12:18:49.156Z,3.55
2023-05-17T12:21:18.442Z,3.40
2023-05-17T12:23:48.871Z,3.08
2023-05-17T12:26:24.593Z,3.75
2023-05-17T12:28:59.071Z,3.35
2023-05-17T12:31:38.601Z,3.58
2023-05-17T12:34:07.345Z,3.60
2023-05-17T12:36:34.487Z,3.78
2023-05-17T12:39:02.527Z,3.20
2023-05-17T12:41:30.916Z,3.53
2023-05-17T12:44:13.605Z,3.58
2023-05-17T12:46:42.099Z,3.33
2023-05-17T12:49:09.794Z,2.88
2023-05-17T12:51:44.304Z,3.53
2023-05-17T12:54:24.501Z,3.20
2023-05-17T12:56:51.808Z,2.80
2023-05-17T12:59:19.444Z,3.22
2023-05-17T13:01:48.754Z,3.33
2023-05-17T13:04:17.611Z,2.80
2023-05-17T13:06:49.781Z,2.72
2023-05-17T13:09:22.201Z,2.92
2023-05-17T13:11:53.943Z,2.70
2023-05-17T13:14:38.028Z,2.50
2023-05-17T13:17:07.230Z,3.22
2023-05-17T13:19:36.211Z,2.80
2023-05-17T13:22:04.252Z,2.90
2023-05-17T13:24:35.995Z,3.10
2023-05-17T13:27:03.666Z,4.10
2023-05-17T13:29:38.683Z,2.65
2023-05-17T13:32:08.474Z,3.35
2023-05-17T13:34:35.856Z,2.90
2023-05-17T13:37:02.672Z,3.47
2023-05-17T13:39:29.481Z,3.00
2023-05-17T13:41:56.336Z,3.30
2023-05-17T13:44:23.285Z,3.28
2023-05-17T13:46:50.109Z,3.10
2023-05-17T13:49:17.560Z,3.33
2023-05-17T13:51:45.283Z,3.45
2023-05-17T13:54:12.195Z,3.28
2023-05-17T13:56:39.068Z,3.33
2023-05-17T13:59:05.968Z,2.95
2023-05-17T14:01:32.834Z,3.22
2023-05-17T14:04:01.070Z,3.30
2023-05-17T14:06:28.580Z,3.20
2023-05-17T14:08:57.337Z,3.33
2023-05-17T14:11:24.146Z,3.20
2023-05-17T14:13:51.296Z,3.00
2023-05-17T14:16:18.093Z,2.90
2023-05-17T14:18:46.191Z,3.17
2023-05-17T14:21:13.252Z,3.10
2023-05-17T14:23:40.015Z,2.97
2023-05-17T14:26:09.712Z,3.00
2023-05-17T14:28:38.450Z,3.20
2023-05-17T14:31:07.186Z,3.30
2023-05-17T14:33:34.342Z,3.03
2023-05-17T14:36:01.438Z,3.00
2023-05-17T14:38:28.401Z,2.72
2023-05-17T14:40:55.317Z,3.08
2023-05-17T14:43:22.674Z,3.13
2023-05-17T14:45:49.437Z,3.10
2023-05-17T14:48:16.814Z,3.25
2023-05-17T14:50:43.830Z,3.55
2023-05-17T14:53:10.622Z,2.95
2023-05-17T14:55:37.432Z,2.95
2023-05-17T14:58:04.295Z,3.03
2023-05-17T15:00:31.083Z,2.95
2023-05-17T15:02:58.393Z,3.28
2023-05-17T15:05:25.958Z,3.30
2023-05-17T15:07:52.870Z,3.00
2023-05-17T15:10:19.858Z,3.30
2023-05-17T15:12:47.585Z,2.97
2023-05-17T15:15:14.565Z,3.22
2023-05-17T15:17:41.850Z,3.50
2023-05-17T15:20:09.425Z,3.13
2023-05-17T15:22:36.904Z,3.00
2023-05-17T15:25:05.034Z,3.10
2023-05-17T15:27:31.918Z,2.88
2023-05-17T15:29:58.825Z,2.88
2023-05-17T15:32:25.915Z,3.00
2023-05-17T15:34:52.877Z,2.80
2023-05-17T15:37:19.845Z,2.95
2023-05-17T15:39:46.906Z,3.05
2023-05-17T15:42:13.705Z,2.83
2023-05-17T15:44:40.479Z,3.90
2023-05-17T15:47:07.396Z,2.95
2023-05-17T15:49:34.396Z,2.80
2023-05-17T15:52:01.610Z,2.88
2023-05-17T15:54:28.617Z,2.85
2023-05-17T15:56:55.444Z,2.88
2023-05-17T15:59:22.435Z,3.47
2023-05-17T16:01:49.719Z,3.00
2023-05-17T16:04:19.493Z,3.10
2023-05-17T16:06:53.318Z,2.97
2023-05-17T16:09:20.269Z,3.00
2023-05-17T16:11:47.236Z,2.88
2023-05-17T16:14:14.100Z,2.85
2023-05-17T16:16:41.858Z,2.67
2023-05-17T16:19:09.154Z,3.30
2023-05-17T16:21:36.149Z,3.78
2023-05-17T16:24:04.463Z,3.42
2023-05-17T16:26:31.238Z,3.25
2023-05-17T16:28:58.999Z,2.83
2023-05-17T16:31:26.028Z,2.72
2023-05-17T16:33:53.157Z,3.10
2023-05-17T16:36:22.714Z,3.42
2023-05-17T16:38:50.394Z,2.70
2023-05-17T16:41:17.325Z,2.83
2023-05-17T16:43:44.246Z,3.75
2023-05-17T16:46:11.024Z,2.90
2023-05-17T16:48:37.821Z,2.55
2023-05-17T16:51:04.949Z,3.08
2023-05-17T16:53:31.826Z,3.42
2023-05-17T16:55:58.620Z,2.63
2023-05-17T16:58:26.275Z,2.83
2023-05-17T17:00:53.292Z,3.03
2023-05-17T17:03:20.144Z,2.75
2023-05-17T17:05:47.045Z,2.75
2023-05-17T17:08:13.850Z,3.22
2023-05-17T17:10:40.684Z,2.97
2023-05-17T17:13:07.524Z,3.17
2023-05-17T17:15:34.516Z,2.92
2023-05-17T17:18:01.424Z,2.40
2023-05-17T17:20:28.716Z,3.25
2023-05-17T17:22:56.254Z,2.38
2023-05-17T17:25:24.922Z,2.70
2023-05-17T17:27:53.237Z,3.15
2023-05-17T17:30:20.430Z,3.13
2023-05-17T17:32:47.568Z,2.90
2023-05-17T17:35:14.524Z,3.00
2023-05-17T17:37:41.420Z,2.58
2023-05-17T17:40:09.032Z,2.60
2023-05-17T17:42:36.023Z,2.60
2023-05-17T17:45:02.844Z,2.85
2023-05-17T17:47:29.628Z,2.40
2023-05-17T17:49:56.610Z,2.65
2023-05-17T17:52:24.008Z,2.30
2023-05-17T17:54:51.174Z,2.63
2023-05-17T17:57:19.645Z,2.15
2023-05-17T17:59:46.451Z,3.10
2023-05-17T18:02:13.360Z,2.50
2023-05-17T18:04:41.158Z,3.03
2023-05-17T18:07:08.955Z,2.50
2023-05-17T18:09:35.878Z,2.70
2023-05-17T18:12:02.732Z,2.90
2023-05-17T18:14:29.525Z,2.47
2023-05-17T18:16:56.440Z,2.35
2023-05-17T18:19:23.556Z,2.78
2023-05-17T18:21:50.966Z,2.60
2023-05-17T18:24:17.880Z,2.80
2023-05-17T18:26:45.050Z,2.88
2023-05-17T18:29:11.915Z,2.50
2023-05-17T18:31:38.906Z,2.78
2023-05-17T18:34:05.723Z,3.03
2023-05-17T18:36:32.669Z,2.45
2023-05-17T18:39:01.094Z,2.63
2023-05-17T18:41:31.029Z,2.80
2023-05-17T18:44:02.161Z,2.45
2023-05-17T18:46:29.981Z,3.13
2023-05-17T18:48:56.939Z,2.65
2023-05-17T18:51:23.776Z,2.47
2023-05-17T18:53:50.645Z,2.60
2023-05-17T18:56:22.998Z,2.67
2023-05-17T18:58:55.736Z,2.85
2023-05-17T19:01:22.689Z,2.70
2023-05-17T19:03:59.363Z,2.47
2023-05-17T19:06:29.475Z,2.72
2023-05-17T19:08:58.415Z,2.67
2023-05-17T19:11:26.450Z,3.20
2023-05-17T19:13:53.231Z,4.53
2023-05-17T19:16:20.172Z,3.90
2023-05-17T19:18:47.060Z,3.75
2023-05-17T19:21:13.902Z,3.22
2023-05-17T19:23:41.117Z,3.97
2023-05-17T19:26:07.900Z,2.60
2023-05-17T19:28:36.113Z,2.50
2023-05-17T19:31:04.078Z,2.75
2023-05-17T19:33:32.264Z,2.50
2023-05-17T19:35:59.083Z,2.72
2023-05-17T19:38:25.854Z,2.53
2023-05-17T19:40:52.835Z,2.75
2023-05-17T19:43:19.759Z,2.50
2023-05-17T19:45:46.575Z,3.33
2023-05-17T19:48:13.593Z,2.40
2023-05-17T19:50:40.495Z,3.25
2023-05-17T19:53:07.265Z,2.45
2023-05-17T19:55:34.714Z,2.53
2023-05-17T19:58:01.552Z,2.33
2023-05-17T20:00:30.128Z,3.40
2023-05-17T20:02:57.556Z,2.50
2023-05-17T20:05:25.679Z,2.28
2023-05-17T20:07:52.513Z,2.47
2023-05-17T20:10:19.351Z,2.63
2023-05-17T20:12:46.992Z,2.55
2023-05-17T20:15:13.949Z,2.63
2023-05-17T20:17:40.823Z,2.30
2023-05-17T20:20:08.387Z,2.35
2023-05-17T20:22:43.927Z,2.40
2023-05-17T20:25:11.618Z,2.72
2023-05-17T20:27:38.922Z,2.65
2023-05-17T20:30:07.621Z,2.78
2023-05-17T20:32:34.558Z,2.53
2023-05-17T20:35:01.696Z,2.80
2023-05-17T20:37:28.778Z,2.47
2023-05-17T20:39:59.630Z,2.25
2023-05-17T20:42:28.507Z,2.28
2023-05-17T20:44:55.801Z,3.15
2023-05-17T20:47:23.077Z,3.13
2023-05-17T20:49:50.582Z,4.00
2023-05-17T20:52:31.376Z,2.65
2023-05-17T20:55:06.313Z,2.50
2023-05-17T20:57:33.127Z,2.65
2023-05-17T20:59:59.984Z,2.63
2023-05-17T21:02:27.032Z,2.65
2023-05-17T21:04:54.902Z,2.30
2023-05-17T21:07:26.685Z,2.00
2023-05-17T21:09:53.506Z,2.65
2023-05-17T21:12:21.900Z,2.58
2023-05-17T21:15:00.525Z,3.03
2023-05-17T21:17:35.263Z,2.55
2023-05-17T21:20:02.251Z,2.00
2023-05-17T21:22:29.131Z,2.78
2023-05-17T21:24:55.911Z,2.80
2023-05-17T21:27:22.725Z,2.33
2023-05-17T21:29:49.464Z,2.33
2023-05-17T21:32:17.369Z,2.72
2023-05-17T21:34:45.195Z,2.75
2023-05-17T21:37:12.213Z,2.42
2023-05-17T21:39:39.058Z,2.30
2023-05-17T21:42:06.222Z,2.10
2023-05-17T21:44:33.000Z,2.42
2023-05-17T21:47:00.286Z,2.88
2023-05-17T21:49:28.846Z,2.30
2023-05-17T21:51:55.702Z,2.47
2023-05-17T21:54:24.669Z,2.55
2023-05-17T21:56:51.782Z,2.55
2023-05-17T21:59:19.017Z,2.38
2023-05-17T22:01:46.114Z,2.80
2023-05-17T22:04:13.059Z,3.38
2023-05-17T22:06:39.889Z,2.83
2023-05-17T22:09:07.347Z,2.90
2023-05-17T22:11:38.489Z,2.10
2023-05-17T22:14:08.429Z,2.10
2023-05-17T22:16:36.229Z,2.70
2023-05-17T22:19:04.113Z,2.67
2023-05-17T22:21:31.863Z,2.60
2023-05-17T22:23:59.353Z,2.47
2023-05-17T22:26:28.003Z,2.72
2023-05-17T22:28:55.918Z,2.78
2023-05-17T22:31:23.155Z,2.80
2023-05-17T22:33:50.649Z,2.75
2023-05-17T22:36:19.297Z,2.65
2023-05-17T22:38:46.591Z,3.00
2023-05-17T22:41:13.964Z,2.75
2023-05-17T22:43:40.851Z,2.60
2023-05-17T22:46:08.020Z,2.72
2023-05-17T22:48:37.586Z,2.75
2023-05-17T22:51:04.621Z,2.90
2023-05-17T22:53:31.888Z,3.47
2023-05-17T22:55:58.975Z,2.75
2023-05-17T22:58:26.054Z,3.55
2023-05-17T23:00:53.173Z,2.40
2023-05-17T23:03:20.669Z,3.03
2023-05-17T23:05:47.637Z,2.97
2023-05-17T23:08:17.699Z,3.10
2023-05-17T23:10:45.071Z,3.40
2023-05-17T23:13:15.630Z,3.67
2023-05-17T23:15:47.179Z,3.35
2023-05-17T23:18:14.122Z,3.70
2023-05-17T23:20:42.329Z,3.42
2023-05-17T23:23:09.238Z,3.47
2023-05-17T23:25:37.523Z,3.38
2023-05-17T23:28:04.903Z,3.53
2023-05-17T23:30:32.454Z,3.78
2023-05-17T23:33:00.377Z,3.65
2023-05-17T23:35:27.388Z,3.28
2023-05-17T23:37:54.376Z,3.55
2023-05-17T23:40:21.359Z,3.08
2023-05-17T23:42:48.213Z,3.83
2023-05-17T23:45:15.100Z,3.45
2023-05-17T23:47:41.920Z,3.13
2023-05-17T23:50:12.261Z,3.88
2023-05-17T23:52:39.482Z,3.40
2023-05-17T23:55:07.604Z,3.30
2023-05-17T23:57:35.473Z,3.75
